WEATHER DATA

YESTERDAY
Time Temp. Dewp. Hum. Wind dir Wind speed Wind gust Bar. 1h Prec. 24h Prec.
00:03 6.6 6.2 97 270 0.6 0.8 1014.2 0.1160
00:12 6.4 6.1 98 270 0.3 0.8 1014.2 0.1160 0.0000
00:22 6.3 6 98 270 0.3 0.6 1014.2 0.1160 0.0000
00:33 6.1 5.8 98 270 0.3 0.8 1014.3 0.0000 0.0000
00:52 5.9 5.6 98 270 0.3 0.8 1014.3 0.0000 0.0000
01:02 5.7 5.4 98 0 0.6 1014.4 0.0000 0.0000
01:13 5.5 5.2 98 270 0.3 0.6 1014.6 0.0000 0.0000
01:23 5.2 4.9 98 270 0.3 0.6 1014.5 0.0000 0.0000
01:33 5 4.7 98 0 0.3 1014.7 0.0000 0.0000
01:43 4.7 4.4 98 0 0.6 1014.6 0.0000 0.0000
01:53 4.5 4.2 98 270 0.3 0.6 1014.7 0.0000 0.0000
02:03 4.4 4.1 98 0 0.3 1015 0.0000 0.0000
02:13 4.3 4 98 0 0.3 1015 0.0000 0.0000
02:23 4.3 4 98 0 0.3 1015.2 0.0000 0.0000
02:33 4.3 4 98 0 0.3 1015.1 0.0000 0.0000
02:43 4.3 4 98 0 0.3 1014.9 0.0000 0.0000
02:54 4.3 3.9 97 0 0.3 1014.9 0.0000 0.0000
03:03 4.4 4 97 0 0.3 1015 0.0000 0.0000
03:13 4.5 4.1 97 270 0.3 0.6 1015.1 0.0000 0.0000
03:23 4.7 4.3 97 270 0.3 1.4 1015.2 0.0000 0.0000
03:34 4.7 4.3 97 253 0.6 1.4 1015.3 0.0000 0.0000
03:44 4.8 4.4 97 270 0.3 0.8 1015.3 0.0000 0.0000
03:53 4.9 4.5 97 270 0.3 0.8 1015.4 0.0000 0.0000
04:04 5 4.6 97 270 0.3 0.8 1015.4 0.0000 0.0000
04:14 5 4.6 97 270 0.8 2.5 1015.5 0.0000 0.0000
04:24 5.2 4.8 97 270 0.8 1.7 1015.6 0.0000 0.0000
04:34 5.3 4.9 97 270 1.4 2.5 1015.6 0.0000 0.0000
04:44 5.5 5.1 97 261 1.7 2.8 1015.6 0.1160 0.1000
04:54 5.6 5.2 97 262 1.4 2.5 1015.5 0.1160 0.1000
05:04 5.7 5.3 97 270 0.8 2.2 1015.6 0.1160 0.1000
05:15 5.8 5.2 96 270 0.8 2.2 1015.7 0.1160 0.1000
05:25 5.9 5.3 96 270 0.6 1.4 1015.7 0.1160 0.1000
05:34 5.9 5.3 96 270 0.8 1.7 1015.9 0.1160 0.1000
05:44 5.9 5.3 96 270 0.8 2.2 1015.9 0.0000 0.1000
05:55 5.9 5.3 96 270 0.8 1.9 1015.9 0.0000 0.1000
06:05 5.9 5.3 96 270 0.6 1.9 1015.9 0.0000 0.1000
06:14 5.9 5.3 96 257 1.4 2.2 1016 0.0000 0.1000
06:25 5.9 5.3 96 270 1.4 2.5 1016.1 0.0000 0.1000
06:35 5.9 5.3 96 270 1.4 2.2 1015.9 0.0000 0.1000
06:45 5.8 5.4 97 251 0.6 1.9 1016.1 0.0000 0.1000
06:54 5.8 5.4 97 270 0.8 1.9 1016.4 0.0000 0.1000
07:05 5.7 5.3 97 261 1.7 2.5 1016.7 0.0000 0.1000
07:15 5.6 5.2 97 262 1.4 2.8 1016.7 0.0000 0.1000
07:25 5.6 5.2 97 270 0.8 1.9 1016.6 0.0000 0.1000
07:36 5.6 5.2 97 270 0.6 1.4 1016.8 0.0000 0.1000
07:45 5.7 5.3 97 270 0.6 1.4 1017 0.0000 0.1000
07:55 5.7 5.3 97 270 0.3 0.6 1017.1 0.0000 0.1000
08:05 5.8 5.2 96 270 0.6 1.4 1017.2 0.0000 0.1000
08:16 5.9 5.3 96 270 0.6 1.7 1017.2 0.0000 0.1000
08:26 6 5.4 96 270 0.3 0.6 1017.3 0.0000 0.1000
08:35 6.1 5.5 96 315 0.3 0.6 1017.4 0.0000 0.1000
08:46 6.2 5.6 96 270 0.3 0.8 1017.5 0.0000 0.1000
08:56 6.3 5.7 96 270 0.6 1.7 1017.6 0.0000 0.1000
09:06 6.4 5.8 96 270 0.6 1.7 1017.6 0.0000 0.1000
09:16 6.5 5.9 96 258 0.8 2.2 1017.8 0.0000 0.1000
09:26 6.5 5.9 96 254 0.6 1.4 1017.8 0.0000 0.1000
09:36 6.6 6 96 270 0.8 2.2 1017.8 0.0000 0.1000
09:46 6.6 6 96 270 0.8 1.9 1017.9 0.0000 0.1000
09:57 6.6 6 96 270 0.8 2.2 1017.9 0.0000 0.1000
10:07 6.7 6.1 96 254 0.8 1.9 1018 0.0000 0.1000
10:16 6.7 6.1 96 270 0.6 1.9 1018.1 0.0000 0.1000
10:26 6.7 6.1 96 270 0.8 1.9 1018.3 0.0000 0.1000
10:37 6.8 6.2 96 262 1.4 2.2 1018.3 0.0000 0.1000
10:47 6.7 6.1 96 264 1.4 2.5 1018.4 0.0000 0.1000
10:56 6.8 6.2 96 251 0.6 1.4 1018.6 0.0000 0.1000
11:07 6.7 6.1 96 291 0.6 1.4 1018.6 0.0000 0.1000
11:17 6.6 6 96 270 0.3 1.4 1018.6 0.0000 0.1000
11:27 6.6 6 96 270 0.8 1.9 1018.6 0.0000 0.1000
11:37 6.7 6.1 96 270 0.6 1.7 1018.5 0.0000 0.1000
11:47 6.8 6.2 96 270 0.3 1.4 1018.6 0.0000 0.1000
11:57 6.9 6.3 96 270 0.6 1.4 1018.5 0.0000 0.1000
12:07 7 6.4 96 270 0.6 1.7 1018.6 0.0000 0.1000
12:17 7 6.4 96 270 0.6 1.7 1018.7 0.0000 0.1000
12:27 7 6.4 96 254 0.6 1.7 1018.7 0.0000 0.1000
12:37 6.9 6.3 96 270 0.6 1.7 1018.9 0.0000 0.1000
12:47 6.9 6.3 96 259 0.8 2.2 1018.9 0.0000 0.1000
12:58 6.8 6.2 96 270 1.4 2.2 1019 0.0000 0.1000
13:08 6.7 6.1 96 270 0.3 0.8 1019 0.0000 0.1000
13:17 6.8 6.2 96 270 0.3 0.6 1019.1 0.0000 0.1000
13:28 6.9 6.3 96 270 0.6 1.7 1019.1 0.0000 0.1000
13:38 6.9 6.3 96 270 0.3 0.8 1019 0.0000 0.1000
13:48 7 6.4 96 270 0.3 0.6 1019.2 0.0000 0.1000
13:57 7 6.4 96 270 0.3 0.8 1019.2 0.0000 0.1000
14:08 7 6.4 96 90 0.3 1.4 1019.1 0.0000 0.1000
14:18 6.9 6.3 96 338 0.3 0.6 1019.3 0.0000 0.1000
14:28 6.8 6.2 96 270 0.3 0.6 1019.3 0.0000 0.1000
14:38 6.9 6.3 96 45 0.3 0.6 1019.3 0.0000 0.1000
14:48 6.8 6.2 96 90 0.3 1.4 1019.3 0.0000 0.1000
14:58 6.8 6.2 96 56 0.3 1.4 1019.4 0.0000 0.1000
15:08 6.8 6.2 96 270 0.3 0.6 1019.7 0.0000 0.1000
15:19 6.8 6.2 96 270 0.3 0.6 1019.7 0.0000 0.1000
15:29 6.7 6.1 96 0 0.6 1019.7 0.0000 0.1000
15:38 6.6 6 96 230 0.3 1.7 1019.8 0.0000 0.1000
15:49 6.5 5.9 96 270 0.3 0.6 1019.7 0.0000 0.1000
15:59 6.3 5.7 96 270 0.6 1.7 1019.9 0.0000 0.1000
16:09 6.2 5.6 96 270 0.3 0.6 1020.1 0.0000 0.1000
16:19 6.2 5.6 96 0 0.6 1020.1 0.0000 0.1000
16:29 6.1 5.5 96 329 0.3 0.8 1020.2 0.0000 0.1000
16:39 6.1 5.5 96 0 0.6 1020.4 0.0000 0.1000
16:49 6 5.4 96 0 0.3 1020.2 0.1160 0.2000
16:59 6 5.4 96 270 0.3 0.8 1020.6 0.1160 0.2000
17:09 6 5.4 96 90 0.3 1.4 1020.7 0.1160 0.2000
17:19 5.9 5.3 96 270 0.3 0.6 1020.8 0.1160 0.2000
17:29 5.9 5.3 96 270 0.3 0.8 1020.8 0.1160 0.2000
17:40 5.8 5.2 96 90 0.3 0.8 1020.9 0.1160 0.2000
17:50 5.7 5.1 96 45 0.3 1.4 1021 0.0000 0.2000
17:59 5.6 5 96 270 0.3 0.6 1020.9 0.0000 0.2000
18:10 5.6 5 96 0 0.3 0.6 1021.1 0.0000 0.2000
18:20 5.6 5 96 270 0.3 0.6 1021.3 0.0000 0.2000
18:30 5.6 5 96 90 0.3 1.4 1021.3 0.0000 0.2000
18:39 5.5 4.9 96 0 0.3 1021.4 0.0000 0.2000
18:50 5.5 4.9 96 270 0.3 0.8 1021.6 0.1160 0.3000
19:00 5.5 4.9 96 315 0.3 0.6 1021.6 0.1160 0.3000
19:10 5.3 4.7 96 270 0.3 0.8 1021.6 0.1160 0.3000
19:20 5.2 4.6 96 0 0.6 1021.7 0.1160 0.3000
19:30 5.2 4.6 96 49 0.3 1.4 1021.7 0.1160 0.3000
19:40 5.1 4.5 96 90 0.3 1.4 1021.8 0.1160 0.3000
19:50 5.1 4.5 96 74 0.8 2.2 1021.7 0.0000 0.3000
20:01 5 4.4 96 270 0.3 0.8 1022 0.0000 0.3000
20:10 4.9 4.3 96 270 0.3 0.8 1022.1 0.0000 0.3000
20:31 4.7 4.1 96 315 0.3 0.8 1022.5 0.0000 0.3000
20:41 4.6 4 96 50 0.3 0.8 1022.5 0.0000 0.3000
21:00 4.6 4 96 270 0.3 0.8 1022.3 0.0000 0.3000
21:11 4.6 4 96 225 0.3 0.8 1022.5 0.0000 0.3000
21:21 4.6 4 96 90 0.3 1.4 1022.6 0.0000 0.3000
21:31 4.6 4 96 270 0.3 1.4 1022.7 0.0000 0.3000
21:41 4.5 3.9 96 54 0.3 0.6 1022.7 0.0000 0.3000
21:51 4.5 3.9 96 270 0.3 1.4 1022.9 0.0000 0.3000
22:01 4.4 3.8 96 270 0.3 1.7 1022.9 0.0000 0.3000
22:11 4.3 3.7 96 270 0.3 0.8 1023.2 0.0000 0.3000
22:21 4.3 3.7 96 270 0.3 0.8 1023.3 0.0000 0.3000
22:31 4.2 3.6 96 29 0.3 0.6 1023.2 0.0000 0.3000
22:41 4.2 3.6 96 14 0.3 0.6 1023.3 0.0000 0.3000
22:51 4.2 3.6 96 45 0.3 0.8 1022.9 0.0000 0.3000
23:01 4.2 3.6 96 270 0.3 1.4 1023.3 0.0000 0.3000
23:11 4.2 3.6 96 270 0.3 0.8 1023.6 0.0000 0.3000
23:21 4.1 3.5 96 270 0.3 0.6 1023.5 0.0000 0.3000
23:32 4.1 3.5 96 270 0.3 1.4 1023.7 0.0000 0.3000
23:42 4 3.4 96 0 0.6 1023.9 0.0000 0.3000
23:51 3.9 3.3 96 270 0.3 1.4 1023.9 0.0000

DAY STATISTIC

2020-10-30
TEMPERATURE
AVERAGE
5.7
HIGH
7.0
12:07
LOW
3.9
23:51
PRESSURE
AVERAGE
1018.6
HIGH
1023.9
23:42
LOW
1014.2
00:03
DEWPOINT
AVERAGE
5.2
HIGH
6.4
12:07
LOW
3.3
23:51
HUMIDITY
AVERAGE
96
HIGH
98
00:12
LOW
96
05:15
WIND SPEED
AVERAGE
0.5
HIGH
1.7
04:44
WIND GUST
AVERAGE
1.2
HIGH
2.8
04:44
WIND DIRECTION
PREVAILING
W
70%
N
2.1
NE
5.7
E
5.7
SE
0.0
S
0.0
SW
1.4
W
70.0
NW
2.9
PRECIPITATION
RAIN HOUR
0.1
RAIN DAY
0.3
TEMPERATURE (°C)
LOW
3.9
HIGH
7.0
AVERAGE
5.7
PRESSURE (hpa)
LOW
1014.2
HIGH
1023.9
AVERAGE
1018.6
DEVICE